sensor_id;sensor_type;location;lat;lon;timestamp;temperature;humidity
18741;DHT22;9499;52.472;13.448;2023-02-28T00:01:33;2.60;99.90
18741;DHT22;9499;52.472;13.448;2023-02-28T00:03:59;2.60;99.90
18741;DHT22;9499;52.472;13.448;2023-02-28T00:06:27;2.50;1.00
18741;DHT22;9499;52.472;13.448;2023-02-28T00:08:54;2.50;1.00
18741;DHT22;9499;52.472;13.448;2023-02-28T00:11:23;2.50;1.00
18741;DHT22;9499;52.472;13.448;2023-02-28T00:13:50;2.50;1.00
18741;DHT22;9499;52.472;13.448;2023-02-28T00:16:18;2.40;1.00
18741;DHT22;9499;52.472;13.448;2023-02-28T00:18:45;2.40;99.90
18741;DHT22;9499;52.472;13.448;2023-02-28T00:21:12;2.40;99.90
18741;DHT22;9499;52.472;13.448;2023-02-28T00:23:40;2.40;99.90
18741;DHT22;9499;52.472;13.448;2023-02-28T00:26:07;2.40;99.90
18741;DHT22;9499;52.472;13.448;2023-02-28T00:28:33;2.40;99.90
18741;DHT22;9499;52.472;13.448;2023-02-28T00:31:00;2.40;99.90
18741;DHT22;9499;52.472;13.448;2023-02-28T00:33:27;2.50;99.90
18741;DHT22;9499;52.472;13.448;2023-02-28T00:36:02;2.40;99.90
18741;DHT22;9499;52.472;13.448;2023-02-28T00:38:29;2.50;99.90
18741;DHT22;9499;52.472;13.448;2023-02-28T00:40:57;2.50;99.90
18741;DHT22;9499;52.472;13.448;2023-02-28T00:43:23;2.40;99.90
18741;DHT22;9499;52.472;13.448;2023-02-28T00:45:50;2.40;99.90
18741;DHT22;9499;52.472;13.448;2023-02-28T00:48:16;2.40;99.90
18741;DHT22;9499;52.472;13.448;2023-02-28T00:50:43;2.40;99.90
18741;DHT22;9499;52.472;13.448;2023-02-28T00:53:10;2.40;99.90
18741;DHT22;9499;52.472;13.448;2023-02-28T00:55:36;2.40;99.90
18741;DHT22;9499;52.472;13.448;2023-02-28T00:58:04;2.40;99.90
18741;DHT22;9499;52.472;13.448;2023-02-28T01:00:31;2.40;99.90
18741;DHT22;9499;52.472;13.448;2023-02-28T01:02:57;2.40;99.90
18741;DHT22;9499;52.472;13.448;2023-02-28T01:05:24;2.40;99.90
18741;DHT22;9499;52.472;13.448;2023-02-28T01:07:50;2.40;1.00
18741;DHT22;9499;52.472;13.448;2023-02-28T01:10:17;2.40;99.90
18741;DHT22;9499;52.472;13.448;2023-02-28T01:12:44;2.30;99.90
18741;DHT22;9499;52.472;13.448;2023-02-28T01:15:12;2.40;1.00
18741;DHT22;9499;52.472;13.448;2023-02-28T01:17:38;2.40;1.00
18741;DHT22;9499;52.472;13.448;2023-02-28T01:20:06;2.30;99.90
18741;DHT22;9499;52.472;13.448;2023-02-28T01:22:34;2.30;99.90
18741;DHT22;9499;52.472;13.448;2023-02-28T01:25:00;2.30;99.90
18741;DHT22;9499;52.472;13.448;2023-02-28T01:27:27;2.20;99.90
18741;DHT22;9499;52.472;13.448;2023-02-28T01:29:54;2.20;99.90
18741;DHT22;9499;52.472;13.448;2023-02-28T01:32:22;2.20;99.90
18741;DHT22;9499;52.472;13.448;2023-02-28T01:34:48;2.20;1.00
18741;DHT22;9499;52.472;13.448;2023-02-28T01:37:15;2.20;1.00
18741;DHT22;9499;52.472;13.448;2023-02-28T01:39:41;2.10;1.00
18741;DHT22;9499;52.472;13.448;2023-02-28T01:42:09;2.10;1.00
18741;DHT22;9499;52.472;13.448;2023-02-28T01:45:03;2.10;1.00
18741;DHT22;9499;52.472;13.448;2023-02-28T01:47:32;2.10;1.00
18741;DHT22;9499;52.472;13.448;2023-02-28T01:50:04;2.00;1.00
18741;DHT22;9499;52.472;13.448;2023-02-28T01:52:32;2.00;32.90
18741;DHT22;9499;52.472;13.448;2023-02-28T01:55:01;2.00;1.40
18741;DHT22;9499;52.472;13.448;2023-02-28T01:57:30;1.90;41.70
18741;DHT22;9499;52.472;13.448;2023-02-28T02:00:05;1.90;99.90
18741;DHT22;9499;52.472;13.448;2023-02-28T02:02:36;1.80;99.90
18741;DHT22;9499;52.472;13.448;2023-02-28T02:05:07;1.80;99.90
18741;DHT22;9499;52.472;13.448;2023-02-28T02:07:36;1.70;1.00
18741;DHT22;9499;52.472;13.448;2023-02-28T02:10:06;1.60;1.00
18741;DHT22;9499;52.472;13.448;2023-02-28T02:13:00;1.70;1.00
18741;DHT22;9499;52.472;13.448;2023-02-28T02:15:32;1.70;1.00
18741;DHT22;9499;52.472;13.448;2023-02-28T02:18:04;1.70;1.00
18741;DHT22;9499;52.472;13.448;2023-02-28T02:20:55;1.70;1.00
18741;DHT22;9499;52.472;13.448;2023-02-28T02:23:44;1.60;1.00
18741;DHT22;9499;52.472;13.448;2023-02-28T02:26:30;1.60;1.00
18741;DHT22;9499;52.472;13.448;2023-02-28T02:29:21;1.60;1.00
18741;DHT22;9499;52.472;13.448;2023-02-28T02:32:18;1.50;1.00
18741;DHT22;9499;52.472;13.448;2023-02-28T02:34:58;1.50;1.00
18741;DHT22;9499;52.472;13.448;2023-02-28T02:37:35;1.40;81.10
18741;DHT22;9499;52.472;13.448;2023-02-28T02:40:10;1.40;99.90
18741;DHT22;9499;52.472;13.448;2023-02-28T02:42:41;1.40;99.90
18741;DHT22;9499;52.472;13.448;2023-02-28T02:45:11;1.40;99.90
18741;DHT22;9499;52.472;13.448;2023-02-28T02:47:43;1.40;99.90
18741;DHT22;9499;52.472;13.448;2023-02-28T02:50:15;1.40;99.90
18741;DHT22;9499;52.472;13.448;2023-02-28T02:52:54;1.40;99.90
18741;DHT22;9499;52.472;13.448;2023-02-28T02:55:22;1.30;99.90
18741;DHT22;9499;52.472;13.448;2023-02-28T02:57:52;1.30;99.90
18741;DHT22;9499;52.472;13.448;2023-02-28T03:00:24;1.30;99.90
18741;DHT22;9499;52.472;13.448;2023-02-28T03:02:54;1.30;99.90
18741;DHT22;9499;52.472;13.448;2023-02-28T03:05:25;1.30;99.90
18741;DHT22;9499;52.472;13.448;2023-02-28T03:07:52;1.20;99.90
18741;DHT22;9499;52.472;13.448;2023-02-28T03:10:43;1.20;99.90
18741;DHT22;9499;52.472;13.448;2023-02-28T03:13:47;1.20;1.00
18741;DHT22;9499;52.472;13.448;2023-02-28T03:16:28;1.10;1.00
18741;DHT22;9499;52.472;13.448;2023-02-28T03:19:03;1.10;1.00
18741;DHT22;9499;52.472;13.448;2023-02-28T03:21:39;1.00;1.00
18741;DHT22;9499;52.472;13.448;2023-02-28T03:24:09;1.00;1.00
18741;DHT22;9499;52.472;13.448;2023-02-28T03:26:40;1.00;1.00
18741;DHT22;9499;52.472;13.448;2023-02-28T03:29:12;1.00;1.00
18741;DHT22;9499;52.472;13.448;2023-02-28T03:31:46;1.00;1.00
18741;DHT22;9499;52.472;13.448;2023-02-28T03:34:18;1.00;1.00
18741;DHT22;9499;52.472;13.448;2023-02-28T03:36:50;1.00;1.00
18741;DHT22;9499;52.472;13.448;2023-02-28T03:39:21;1.10;1.00
18741;DHT22;9499;52.472;13.448;2023-02-28T03:41:53;1.10;1.00
18741;DHT22;9499;52.472;13.448;2023-02-28T03:44:25;1.10;1.00
18741;DHT22;9499;52.472;13.448;2023-02-28T03:46:58;1.10;1.00
18741;DHT22;9499;52.472;13.448;2023-02-28T03:49:30;1.10;1.00
18741;DHT22;9499;52.472;13.448;2023-02-28T03:52:01;1.10;1.00
18741;DHT22;9499;52.472;13.448;2023-02-28T03:54:31;1.10;1.00
18741;DHT22;9499;52.472;13.448;2023-02-28T03:57:04;1.10;1.00
18741;DHT22;9499;52.472;13.448;2023-02-28T03:59:35;1.10;1.00
18741;DHT22;9499;52.472;13.448;2023-02-28T04:02:02;1.00;1.00
18741;DHT22;9499;52.472;13.448;2023-02-28T04:04:29;1.00;1.00
18741;DHT22;9499;52.472;13.448;2023-02-28T04:07:03;1.00;1.00
18741;DHT22;9499;52.472;13.448;2023-02-28T04:09:30;1.00;1.00
18741;DHT22;9499;52.472;13.448;2023-02-28T04:11:56;1.00;1.00
18741;DHT22;9499;52.472;13.448;2023-02-28T04:14:23;0.90;1.00
18741;DHT22;9499;52.472;13.448;2023-02-28T04:16:49;0.90;1.00
18741;DHT22;9499;52.472;13.448;2023-02-28T04:19:18;0.90;1.00
18741;DHT22;9499;52.472;13.448;2023-02-28T04:21:46;0.80;1.00
18741;DHT22;9499;52.472;13.448;2023-02-28T04:24:16;0.90;1.00
18741;DHT22;9499;52.472;13.448;2023-02-28T04:26:44;0.90;1.00
18741;DHT22;9499;52.472;13.448;2023-02-28T04:29:13;0.80;1.00
18741;DHT22;9499;52.472;13.448;2023-02-28T04:31:40;0.80;1.00
18741;DHT22;9499;52.472;13.448;2023-02-28T04:34:06;0.80;1.00
18741;DHT22;9499;52.472;13.448;2023-02-28T04:36:33;0.80;67.10
18741;DHT22;9499;52.472;13.448;2023-02-28T04:38:59;0.80;43.60
18741;DHT22;9499;52.472;13.448;2023-02-28T04:41:27;0.70;59.80
18741;DHT22;9499;52.472;13.448;2023-02-28T04:43:54;0.70;99.90
18741;DHT22;9499;52.472;13.448;2023-02-28T04:46:22;0.70;99.90
18741;DHT22;9499;52.472;13.448;2023-02-28T04:48:48;0.70;99.90
18741;DHT22;9499;52.472;13.448;2023-02-28T04:51:17;0.60;99.90
18741;DHT22;9499;52.472;13.448;2023-02-28T04:53:45;0.60;99.90
18741;DHT22;9499;52.472;13.448;2023-02-28T04:56:13;0.70;99.90
18741;DHT22;9499;52.472;13.448;2023-02-28T04:58:41;0.60;99.90
18741;DHT22;9499;52.472;13.448;2023-02-28T05:01:17;0.60;99.90
18741;DHT22;9499;52.472;13.448;2023-02-28T05:03:44;0.60;99.90
18741;DHT22;9499;52.472;13.448;2023-02-28T05:06:12;0.50;99.90
18741;DHT22;9499;52.472;13.448;2023-02-28T05:08:38;0.50;99.90
18741;DHT22;9499;52.472;13.448;2023-02-28T05:11:07;0.50;99.90
18741;DHT22;9499;52.472;13.448;2023-02-28T05:13:37;0.50;99.90
18741;DHT22;9499;52.472;13.448;2023-02-28T05:16:06;0.50;99.90
18741;DHT22;9499;52.472;13.448;2023-02-28T05:18:32;0.40;99.90
18741;DHT22;9499;52.472;13.448;2023-02-28T05:20:59;0.50;99.90
18741;DHT22;9499;52.472;13.448;2023-02-28T05:23:27;0.50;99.90
18741;DHT22;9499;52.472;13.448;2023-02-28T05:25:54;0.40;99.90
18741;DHT22;9499;52.472;13.448;2023-02-28T05:28:20;0.40;99.90
18741;DHT22;9499;52.472;13.448;2023-02-28T05:30:47;0.30;99.90
18741;DHT22;9499;52.472;13.448;2023-02-28T05:33:15;0.30;99.90
18741;DHT22;9499;52.472;13.448;2023-02-28T05:35:42;0.30;99.90
18741;DHT22;9499;52.472;13.448;2023-02-28T05:38:09;0.30;1.00
18741;DHT22;9499;52.472;13.448;2023-02-28T05:40:37;0.30;1.00
18741;DHT22;9499;52.472;13.448;2023-02-28T05:43:04;0.30;1.00
18741;DHT22;9499;52.472;13.448;2023-02-28T05:45:30;0.30;1.00
18741;DHT22;9499;52.472;13.448;2023-02-28T05:47:57;0.20;1.00
18741;DHT22;9499;52.472;13.448;2023-02-28T05:50:25;0.20;1.00
18741;DHT22;9499;52.472;13.448;2023-02-28T05:52:52;0.10;1.00
18741;DHT22;9499;52.472;13.448;2023-02-28T05:55:18;0.10;1.00
18741;DHT22;9499;52.472;13.448;2023-02-28T05:57:45;0.10;1.00
18741;DHT22;9499;52.472;13.448;2023-02-28T06:00:13;0.10;1.00
18741;DHT22;9499;52.472;13.448;2023-02-28T06:02:41;0.10;1.00
18741;DHT22;9499;52.472;13.448;2023-02-28T06:05:21;0.10;1.00
18741;DHT22;9499;52.472;13.448;2023-02-28T06:07:49;0.10;1.00
18741;DHT22;9499;52.472;13.448;2023-02-28T06:10:16;0.10;1.00
18741;DHT22;9499;52.472;13.448;2023-02-28T06:12:42;0.10;1.00
18741;DHT22;9499;52.472;13.448;2023-02-28T06:15:12;0.10;1.00
18741;DHT22;9499;52.472;13.448;2023-02-28T06:17:39;0.10;1.00
18741;DHT22;9499;52.472;13.448;2023-02-28T06:20:07;0.10;1.00
18741;DHT22;9499;52.472;13.448;2023-02-28T06:22:34;0.10;1.00
18741;DHT22;9499;52.472;13.448;2023-02-28T06:25:03;0.20;1.00
18741;DHT22;9499;52.472;13.448;2023-02-28T06:27:30;0.20;1.00
18741;DHT22;9499;52.472;13.448;2023-02-28T06:29:57;0.20;1.00
18741;DHT22;9499;52.472;13.448;2023-02-28T06:32:24;0.20;1.00
18741;DHT22;9499;52.472;13.448;2023-02-28T06:34:54;0.20;1.00
18741;DHT22;9499;52.472;13.448;2023-02-28T06:37:22;0.30;1.00
18741;DHT22;9499;52.472;13.448;2023-02-28T06:39:51;0.30;99.90
18741;DHT22;9499;52.472;13.448;2023-02-28T06:42:19;0.30;99.90
18741;DHT22;9499;52.472;13.448;2023-02-28T06:44:47;0.30;99.90
18741;DHT22;9499;52.472;13.448;2023-02-28T06:47:13;0.30;99.90
18741;DHT22;9499;52.472;13.448;2023-02-28T06:49:40;0.40;99.90
18741;DHT22;9499;52.472;13.448;2023-02-28T06:52:07;0.40;1.00
18741;DHT22;9499;52.472;13.448;2023-02-28T06:54:36;0.40;1.00
18741;DHT22;9499;52.472;13.448;2023-02-28T06:57:02;0.40;1.00
18741;DHT22;9499;52.472;13.448;2023-02-28T06:59:31;0.50;1.00
18741;DHT22;9499;52.472;13.448;2023-02-28T07:01:58;0.50;99.90
18741;DHT22;9499;52.472;13.448;2023-02-28T07:04:24;0.50;99.90
18741;DHT22;9499;52.472;13.448;2023-02-28T07:06:51;0.60;1.00
18741;DHT22;9499;52.472;13.448;2023-02-28T07:09:17;0.60;1.00
18741;DHT22;9499;52.472;13.448;2023-02-28T07:11:44;0.70;1.00
18741;DHT22;9499;52.472;13.448;2023-02-28T07:14:11;0.70;1.00
18741;DHT22;9499;52.472;13.448;2023-02-28T07:16:38;0.70;99.90
18741;DHT22;9499;52.472;13.448;2023-02-28T07:19:05;0.70;99.90
18741;DHT22;9499;52.472;13.448;2023-02-28T07:21:32;0.80;99.90
18741;DHT22;9499;52.472;13.448;2023-02-28T07:23:58;0.80;99.90
18741;DHT22;9499;52.472;13.448;2023-02-28T07:26:25;0.90;34.40
18741;DHT22;9499;52.472;13.448;2023-02-28T07:28:54;1.00;1.00
18741;DHT22;9499;52.472;13.448;2023-02-28T07:31:20;1.00;1.00
18741;DHT22;9499;52.472;13.448;2023-02-28T07:33:48;1.00;1.00
18741;DHT22;9499;52.472;13.448;2023-02-28T07:36:16;1.10;99.90
18741;DHT22;9499;52.472;13.448;2023-02-28T07:38:46;1.20;47.60
18741;DHT22;9499;52.472;13.448;2023-02-28T07:41:14;1.20;1.00
18741;DHT22;9499;52.472;13.448;2023-02-28T07:43:41;1.20;99.90
18741;DHT22;9499;52.472;13.448;2023-02-28T07:46:11;1.20;99.90
18741;DHT22;9499;52.472;13.448;2023-02-28T07:48:38;1.30;1.00
18741;DHT22;9499;52.472;13.448;2023-02-28T07:51:08;1.40;1.00
18741;DHT22;9499;52.472;13.448;2023-02-28T07:53:35;1.40;1.00
18741;DHT22;9499;52.472;13.448;2023-02-28T07:56:03;1.50;1.00
18741;DHT22;9499;52.472;13.448;2023-02-28T07:58:30;1.60;1.00
18741;DHT22;9499;52.472;13.448;2023-02-28T08:00:57;1.60;99.90
18741;DHT22;9499;52.472;13.448;2023-02-28T08:03:30;1.70;99.90
18741;DHT22;9499;52.472;13.448;2023-02-28T08:05:57;1.80;1.00
18741;DHT22;9499;52.472;13.448;2023-02-28T08:08:25;1.80;1.00
18741;DHT22;9499;52.472;13.448;2023-02-28T08:10:54;1.80;1.00
18741;DHT22;9499;52.472;13.448;2023-02-28T08:13:23;1.90;1.00
18741;DHT22;9499;52.472;13.448;2023-02-28T08:15:49;1.90;99.90
18741;DHT22;9499;52.472;13.448;2023-02-28T08:18:16;2.00;1.00
18741;DHT22;9499;52.472;13.448;2023-02-28T08:20:43;2.00;1.00
18741;DHT22;9499;52.472;13.448;2023-02-28T08:23:10;2.10;1.00
18741;DHT22;9499;52.472;13.448;2023-02-28T08:25:38;2.20;1.00
18741;DHT22;9499;52.472;13.448;2023-02-28T08:28:04;2.40;1.00
18741;DHT22;9499;52.472;13.448;2023-02-28T08:30:31;2.40;1.00
18741;DHT22;9499;52.472;13.448;2023-02-28T08:32:57;2.50;1.00
18741;DHT22;9499;52.472;13.448;2023-02-28T08:35:27;2.60;1.00
18741;DHT22;9499;52.472;13.448;2023-02-28T08:37:53;2.60;1.00
18741;DHT22;9499;52.472;13.448;2023-02-28T08:40:20;2.70;99.90
18741;DHT22;9499;52.472;13.448;2023-02-28T08:42:48;2.70;99.90
18741;DHT22;9499;52.472;13.448;2023-02-28T08:45:15;2.70;73.50
18741;DHT22;9499;52.472;13.448;2023-02-28T08:47:42;2.80;40.80
18741;DHT22;9499;52.472;13.448;2023-02-28T08:50:09;2.80;19.80
18741;DHT22;9499;52.472;13.448;2023-02-28T08:52:36;2.90;49.70
18741;DHT22;9499;52.472;13.448;2023-02-28T08:55:04;2.90;1.00
18741;DHT22;9499;52.472;13.448;2023-02-28T08:57:30;3.00;1.00
18741;DHT22;9499;52.472;13.448;2023-02-28T08:59:59;3.00;1.00
18741;DHT22;9499;52.472;13.448;2023-02-28T09:02:27;3.00;1.00
18741;DHT22;9499;52.472;13.448;2023-02-28T09:04:53;3.10;1.00
18741;DHT22;9499;52.472;13.448;2023-02-28T09:07:20;3.30;1.00
18741;DHT22;9499;52.472;13.448;2023-02-28T09:09:47;3.30;1.00
18741;DHT22;9499;52.472;13.448;2023-02-28T09:12:24;3.30;1.00
18741;DHT22;9499;52.472;13.448;2023-02-28T09:14:51;3.30;1.00
18741;DHT22;9499;52.472;13.448;2023-02-28T09:17:19;3.40;1.00
18741;DHT22;9499;52.472;13.448;2023-02-28T09:19:47;3.50;1.00
18741;DHT22;9499;52.472;13.448;2023-02-28T09:22:14;3.60;1.00
18741;DHT22;9499;52.472;13.448;2023-02-28T09:24:42;3.60;1.00
18741;DHT22;9499;52.472;13.448;2023-02-28T09:27:10;3.60;1.00
18741;DHT22;9499;52.472;13.448;2023-02-28T09:29:39;3.70;1.00
18741;DHT22;9499;52.472;13.448;2023-02-28T09:32:06;3.80;1.00
18741;DHT22;9499;52.472;13.448;2023-02-28T09:34:34;3.90;1.00
18741;DHT22;9499;52.472;13.448;2023-02-28T09:37:02;3.80;1.00
18741;DHT22;9499;52.472;13.448;2023-02-28T09:39:29;3.70;1.00
18741;DHT22;9499;52.472;13.448;2023-02-28T09:41:57;3.70;1.00
18741;DHT22;9499;52.472;13.448;2023-02-28T09:44:30;3.80;1.00
18741;DHT22;9499;52.472;13.448;2023-02-28T09:47:00;4.00;1.00
18741;DHT22;9499;52.472;13.448;2023-02-28T09:49:35;4.00;1.00
18741;DHT22;9499;52.472;13.448;2023-02-28T09:52:05;4.10;1.00
18741;DHT22;9499;52.472;13.448;2023-02-28T09:54:35;4.30;1.00
18741;DHT22;9499;52.472;13.448;2023-02-28T09:57:07;4.30;1.00
18741;DHT22;9499;52.472;13.448;2023-02-28T09:59:40;4.30;1.00
18741;DHT22;9499;52.472;13.448;2023-02-28T10:02:21;4.30;1.00
18741;DHT22;9499;52.472;13.448;2023-02-28T10:04:54;4.30;1.00
18741;DHT22;9499;52.472;13.448;2023-02-28T10:07:39;4.30;1.00
18741;DHT22;9499;52.472;13.448;2023-02-28T10:10:18;4.40;1.00
18741;DHT22;9499;52.472;13.448;2023-02-28T10:12:47;4.70;1.00
18741;DHT22;9499;52.472;13.448;2023-02-28T10:15:15;5.10;1.00
18741;DHT22;9499;52.472;13.448;2023-02-28T10:17:45;5.60;1.00
18741;DHT22;9499;52.472;13.448;2023-02-28T10:20:20;5.90;1.00
18741;DHT22;9499;52.472;13.448;2023-02-28T10:22:52;6.40;1.00
18741;DHT22;9499;52.472;13.448;2023-02-28T10:25:22;6.70;1.00
18741;DHT22;9499;52.472;13.448;2023-02-28T10:27:50;6.90;1.00
18741;DHT22;9499;52.472;13.448;2023-02-28T10:30:19;7.20;1.00
18741;DHT22;9499;52.472;13.448;2023-02-28T10:32:50;7.30;1.00
18741;DHT22;9499;52.472;13.448;2023-02-28T10:35:22;7.50;1.00
18741;DHT22;9499;52.472;13.448;2023-02-28T10:37:50;7.60;1.00
18741;DHT22;9499;52.472;13.448;2023-02-28T10:40:29;7.80;1.00
18741;DHT22;9499;52.472;13.448;2023-02-28T10:42:58;7.90;1.00
18741;DHT22;9499;52.472;13.448;2023-02-28T10:45:26;7.90;1.00
18741;DHT22;9499;52.472;13.448;2023-02-28T10:47:57;8.00;1.00
18741;DHT22;9499;52.472;13.448;2023-02-28T10:50:32;8.10;1.00
18741;DHT22;9499;52.472;13.448;2023-02-28T10:53:12;8.20;1.00
18741;DHT22;9499;52.472;13.448;2023-02-28T10:55:40;8.20;1.00
18741;DHT22;9499;52.472;13.448;2023-02-28T10:58:20;8.10;1.00
18741;DHT22;9499;52.472;13.448;2023-02-28T11:00:47;8.30;1.00
18741;DHT22;9499;52.472;13.448;2023-02-28T11:03:25;8.40;1.00
18741;DHT22;9499;52.472;13.448;2023-02-28T11:05:53;8.60;1.00
18741;DHT22;9499;52.472;13.448;2023-02-28T11:08:20;8.80;1.00
18741;DHT22;9499;52.472;13.448;2023-02-28T11:10:48;9.00;1.00
18741;DHT22;9499;52.472;13.448;2023-02-28T11:13:21;9.10;1.00
18741;DHT22;9499;52.472;13.448;2023-02-28T11:15:53;8.80;1.00
18741;DHT22;9499;52.472;13.448;2023-02-28T11:18:24;8.80;1.00
18741;DHT22;9499;52.472;13.448;2023-02-28T11:20:55;8.80;1.00
18741;DHT22;9499;52.472;13.448;2023-02-28T11:23:24;8.80;1.00
18741;DHT22;9499;52.472;13.448;2023-02-28T11:25:52;8.70;1.00
18741;DHT22;9499;52.472;13.448;2023-02-28T11:28:28;8.50;1.00
18741;DHT22;9499;52.472;13.448;2023-02-28T11:31:05;8.50;1.00
18741;DHT22;9499;52.472;13.448;2023-02-28T11:33:40;8.60;1.00
18741;DHT22;9499;52.472;13.448;2023-02-28T11:36:14;9.10;1.00
18741;DHT22;9499;52.472;13.448;2023-02-28T11:38:42;9.10;1.00
18741;DHT22;9499;52.472;13.448;2023-02-28T11:41:19;9.40;1.00
18741;DHT22;9499;52.472;13.448;2023-02-28T11:44:02;9.60;1.00
18741;DHT22;9499;52.472;13.448;2023-02-28T11:46:37;9.40;1.00
18741;DHT22;9499;52.472;13.448;2023-02-28T11:49:19;9.40;1.00
18741;DHT22;9499;52.472;13.448;2023-02-28T11:51:56;9.60;1.00
18741;DHT22;9499;52.472;13.448;2023-02-28T11:54:41;9.60;1.00
18741;DHT22;9499;52.472;13.448;2023-02-28T11:57:24;9.30;1.00
18741;DHT22;9499;52.472;13.448;2023-02-28T12:00:06;9.30;1.00
18741;DHT22;9499;52.472;13.448;2023-02-28T12:02:40;9.30;1.00
18741;DHT22;9499;52.472;13.448;2023-02-28T12:05:24;9.30;1.00
18741;DHT22;9499;52.472;13.448;2023-02-28T12:08:06;9.40;1.00
18741;DHT22;9499;52.472;13.448;2023-02-28T12:10:39;9.50;1.00
18741;DHT22;9499;52.472;13.448;2023-02-28T12:13:16;9.50;1.00
18741;DHT22;9499;52.472;13.448;2023-02-28T12:15:58;9.60;1.00
18741;DHT22;9499;52.472;13.448;2023-02-28T12:18:34;9.80;1.00
18741;DHT22;9499;52.472;13.448;2023-02-28T12:21:11;10.00;1.00
18741;DHT22;9499;52.472;13.448;2023-02-28T12:24:03;10.20;1.00
18741;DHT22;9499;52.472;13.448;2023-02-28T12:26:36;10.40;1.00
18741;DHT22;9499;52.472;13.448;2023-02-28T12:29:10;10.60;1.00
18741;DHT22;9499;52.472;13.448;2023-02-28T12:31:42;10.70;1.00
18741;DHT22;9499;52.472;13.448;2023-02-28T12:34:15;10.70;1.00
18741;DHT22;9499;52.472;13.448;2023-02-28T12:36:44;10.50;1.00
18741;DHT22;9499;52.472;13.448;2023-02-28T12:39:16;10.40;1.00
18741;DHT22;9499;52.472;13.448;2023-02-28T12:41:47;10.60;1.00
18741;DHT22;9499;52.472;13.448;2023-02-28T12:44:18;10.60;1.00
18741;DHT22;9499;52.472;13.448;2023-02-28T12:46:49;10.60;1.00
18741;DHT22;9499;52.472;13.448;2023-02-28T12:49:21;10.80;1.00
18741;DHT22;9499;52.472;13.448;2023-02-28T12:51:50;11.00;1.00
18741;DHT22;9499;52.472;13.448;2023-02-28T12:54:24;11.10;1.00
18741;DHT22;9499;52.472;13.448;2023-02-28T12:56:57;11.00;1.00
18741;DHT22;9499;52.472;13.448;2023-02-28T12:59:34;10.80;1.00
18741;DHT22;9499;52.472;13.448;2023-02-28T13:02:27;11.00;1.00
18741;DHT22;9499;52.472;13.448;2023-02-28T13:05:26;11.00;1.00
18741;DHT22;9499;52.472;13.448;2023-02-28T13:08:08;11.00;1.00
18741;DHT22;9499;52.472;13.448;2023-02-28T13:10:41;11.00;1.00
18741;DHT22;9499;52.472;13.448;2023-02-28T13:13:14;11.10;1.00
18741;DHT22;9499;52.472;13.448;2023-02-28T13:15:41;11.30;1.00
18741;DHT22;9499;52.472;13.448;2023-02-28T13:18:29;11.30;1.00
18741;DHT22;9499;52.472;13.448;2023-02-28T13:20:57;11.60;1.00
18741;DHT22;9499;52.472;13.448;2023-02-28T13:23:39;11.70;1.00
18741;DHT22;9499;52.472;13.448;2023-02-28T13:26:08;11.90;1.00
18741;DHT22;9499;52.472;13.448;2023-02-28T13:28:57;11.90;1.00
18741;DHT22;9499;52.472;13.448;2023-02-28T13:31:24;12.00;1.00
18741;DHT22;9499;52.472;13.448;2023-02-28T13:34:14;11.90;1.00
18741;DHT22;9499;52.472;13.448;2023-02-28T13:36:41;11.80;1.00
18741;DHT22;9499;52.472;13.448;2023-02-28T13:39:45;11.70;1.00
18741;DHT22;9499;52.472;13.448;2023-02-28T13:42:33;11.90;1.00
18741;DHT22;9499;52.472;13.448;2023-02-28T13:45:23;11.80;1.00
18741;DHT22;9499;52.472;13.448;2023-02-28T13:47:55;11.70;1.00
18741;DHT22;9499;52.472;13.448;2023-02-28T13:50:31;11.80;1.00
18741;DHT22;9499;52.472;13.448;2023-02-28T13:53:26;11.80;1.00
18741;DHT22;9499;52.472;13.448;2023-02-28T13:56:03;11.80;1.00
18741;DHT22;9499;52.472;13.448;2023-02-28T13:58:41;11.80;1.00
18741;DHT22;9499;52.472;13.448;2023-02-28T14:01:31;12.00;1.00
18741;DHT22;9499;52.472;13.448;2023-02-28T14:04:29;12.10;1.00
18741;DHT22;9499;52.472;13.448;2023-02-28T14:07:02;11.90;1.00
18741;DHT22;9499;52.472;13.448;2023-02-28T14:09:31;11.90;1.00
18741;DHT22;9499;52.472;13.448;2023-02-28T14:15:27;12.00;1.00
18741;DHT22;9499;52.472;13.448;2023-02-28T14:17:55;11.70;1.00
18741;DHT22;9499;52.472;13.448;2023-02-28T14:20:26;11.40;1.00
18741;DHT22;9499;52.472;13.448;2023-02-28T14:23:00;11.50;1.00
18741;DHT22;9499;52.472;13.448;2023-02-28T14:25:33;11.60;1.00
18741;DHT22;9499;52.472;13.448;2023-02-28T14:28:13;11.70;1.00
18741;DHT22;9499;52.472;13.448;2023-02-28T14:30:55;11.80;1.00
18741;DHT22;9499;52.472;13.448;2023-02-28T14:33:27;11.70;1.00
18741;DHT22;9499;52.472;13.448;2023-02-28T14:36:04;11.50;1.00
18741;DHT22;9499;52.472;13.448;2023-02-28T14:38:36;11.20;1.00
18741;DHT22;9499;52.472;13.448;2023-02-28T14:41:12;10.90;1.00
18741;DHT22;9499;52.472;13.448;2023-02-28T14:43:49;10.60;1.00
18741;DHT22;9499;52.472;13.448;2023-02-28T14:46:17;10.10;1.00
18741;DHT22;9499;52.472;13.448;2023-02-28T14:48:45;9.80;1.00
18741;DHT22;9499;52.472;13.448;2023-02-28T14:51:18;9.50;1.00
18741;DHT22;9499;52.472;13.448;2023-02-28T14:53:49;9.30;1.00
18741;DHT22;9499;52.472;13.448;2023-02-28T14:56:21;9.10;1.00
18741;DHT22;9499;52.472;13.448;2023-02-28T14:58:52;9.00;1.00
18741;DHT22;9499;52.472;13.448;2023-02-28T15:01:21;8.70;1.00
18741;DHT22;9499;52.472;13.448;2023-02-28T15:03:48;8.60;1.00
18741;DHT22;9499;52.472;13.448;2023-02-28T15:06:22;8.40;1.00
18741;DHT22;9499;52.472;13.448;2023-02-28T15:09:10;8.10;1.00
18741;DHT22;9499;52.472;13.448;2023-02-28T15:11:38;8.00;1.00
18741;DHT22;9499;52.472;13.448;2023-02-28T15:14:05;8.00;1.00
18741;DHT22;9499;52.472;13.448;2023-02-28T15:16:35;7.90;1.00
18741;DHT22;9499;52.472;13.448;2023-02-28T15:19:05;7.70;1.00
18741;DHT22;9499;52.472;13.448;2023-02-28T15:21:36;7.60;1.00
18741;DHT22;9499;52.472;13.448;2023-02-28T15:24:04;7.60;1.00
18741;DHT22;9499;52.472;13.448;2023-02-28T15:26:36;7.50;1.00
18741;DHT22;9499;52.472;13.448;2023-02-28T15:29:07;7.40;1.00
18741;DHT22;9499;52.472;13.448;2023-02-28T15:31:43;7.40;1.00
18741;DHT22;9499;52.472;13.448;2023-02-28T15:34:18;7.30;1.00
18741;DHT22;9499;52.472;13.448;2023-02-28T15:36:45;7.20;1.00
18741;DHT22;9499;52.472;13.448;2023-02-28T15:39:20;7.20;1.00
18741;DHT22;9499;52.472;13.448;2023-02-28T15:41:47;7.10;1.00
18741;DHT22;9499;52.472;13.448;2023-02-28T15:44:23;7.10;1.00
18741;DHT22;9499;52.472;13.448;2023-02-28T15:46:58;7.00;1.00
18741;DHT22;9499;52.472;13.448;2023-02-28T15:49:27;6.80;1.00
18741;DHT22;9499;52.472;13.448;2023-02-28T15:51:57;6.70;1.00
18741;DHT22;9499;52.472;13.448;2023-02-28T15:54:28;6.80;1.00
18741;DHT22;9499;52.472;13.448;2023-02-28T15:56:57;6.70;1.00
18741;DHT22;9499;52.472;13.448;2023-02-28T15:59:26;6.70;1.00
18741;DHT22;9499;52.472;13.448;2023-02-28T16:02:15;6.60;1.00
18741;DHT22;9499;52.472;13.448;2023-02-28T16:05:18;6.60;1.00
18741;DHT22;9499;52.472;13.448;2023-02-28T16:07:46;6.50;1.00
18741;DHT22;9499;52.472;13.448;2023-02-28T16:10:14;6.50;1.00
18741;DHT22;9499;52.472;13.448;2023-02-28T16:12:41;6.40;1.00
18741;DHT22;9499;52.472;13.448;2023-02-28T16:15:18;6.40;1.00
18741;DHT22;9499;52.472;13.448;2023-02-28T16:17:47;6.30;1.00
18741;DHT22;9499;52.472;13.448;2023-02-28T16:20:14;6.20;1.00
18741;DHT22;9499;52.472;13.448;2023-02-28T16:22:41;6.20;1.00
18741;DHT22;9499;52.472;13.448;2023-02-28T16:25:11;6.20;1.00